Time;durP1;ratioP1;P1;durP2;ratioP2;P2;SDS_P1;SDS_P2;PMS_P1;PMS_P2;Temp;Humidity;BMP_temperature;BMP_pressure;BME280_temperature;BME280_humidity;BME280_pressure;Samples;Min_cycle;Max_cycle;Signal;HPM_P1;HPM_P2
2024/02/14 00:01:43;;;;;;;24.90;4.20;;;;;;;-143.29;100.00;62188.47;4920563;29;20032;-96
2024/02/14 00:04:15;;;;;;;18.70;3.70;;;;;;;-143.29;100.00;62188.47;4936183;29;20043;-95
2024/02/14 00:06:41;;;;;;;33.42;4.40;;;;;;;-143.29;100.00;62188.47;4936620;29;20037;-96
2024/02/14 00:09:07;;;;;;;21.23;3.17;;;;;;;-143.29;100.00;62188.47;4952355;29;20043;-96
2024/02/14 00:11:36;;;;;;;22.60;2.78;;;;;;;-143.29;100.00;62188.47;4936704;29;20025;-96
2024/02/14 00:14:02;;;;;;;30.23;4.15;;;;;;;-143.29;100.00;62188.47;4920211;29;20068;-96
2024/02/14 00:16:31;;;;;;;28.52;4.03;;;;;;;-143.29;100.00;62188.47;4935928;29;20024;-96
2024/02/14 00:18:57;;;;;;;33.75;5.25;;;;;;;-143.29;100.00;62188.47;4936833;29;20048;-95
2024/02/14 00:21:34;;;;;;;20.45;3.22;;;;;;;-143.29;100.00;62188.47;4935591;29;20036;-96
2024/02/14 00:24:02;;;;;;;29.02;4.43;;;;;;;-143.29;100.00;62188.47;4937125;29;20028;-96
2024/02/14 00:26:36;;;;;;;24.70;4.75;;;;;;;-143.29;100.00;62188.47;4938437;29;20471;-96
2024/02/14 00:29:02;;;;;;;36.30;5.82;;;;;;;-143.29;100.00;62188.47;4935908;29;20029;-96
2024/02/14 00:31:31;;;;;;;23.23;3.45;;;;;;;-143.29;100.00;62188.47;4936742;29;20115;-96
2024/02/14 00:33:57;;;;;;;24.73;3.75;;;;;;;-143.29;100.00;62188.47;4936859;29;20042;-96
2024/02/14 00:36:23;;;;;;;23.70;3.80;;;;;;;-143.29;100.00;62188.47;4935973;29;20021;-96
2024/02/14 00:38:49;;;;;;;26.40;3.83;;;;;;;-143.29;100.00;62188.47;4935720;29;20186;-95
2024/02/14 00:41:17;;;;;;;25.13;4.28;;;;;;;-143.29;100.00;62188.47;4935125;29;20578;-96
2024/02/14 00:43:44;;;;;;;30.50;3.83;;;;;;;-143.29;100.00;62188.47;4933984;29;20036;-96
2024/02/14 00:46:18;;;;;;;28.48;3.63;;;;;;;-143.29;100.00;62188.47;4935013;29;20030;-96
2024/02/14 00:48:46;;;;;;;34.80;3.90;;;;;;;-143.29;100.00;62188.47;4935787;29;20020;-96
2024/02/14 00:51:13;;;;;;;27.38;4.05;;;;;;;-143.29;100.00;62188.47;4935726;29;20024;-96
2024/02/14 00:53:39;;;;;;;30.58;4.00;;;;;;;-143.29;100.00;62188.47;4934671;29;20024;-96
2024/02/14 00:56:07;;;;;;;26.17;3.33;;;;;;;-143.29;100.00;62188.47;4935099;29;20036;-96
2024/02/14 00:58:37;;;;;;;17.10;3.42;;;;;;;-143.29;100.00;62188.47;4936613;29;20107;-96
2024/02/14 01:01:09;;;;;;;26.83;3.55;;;;;;;-143.29;100.00;62188.47;4940348;29;20024;-96
2024/02/14 01:03:38;;;;;;;28.65;3.88;;;;;;;-143.29;100.00;62188.47;4925054;29;20044;-95
2024/02/14 01:06:06;;;;;;;21.00;3.05;;;;;;;-143.29;100.00;62188.47;4940454;29;20032;-96
2024/02/14 01:08:33;;;;;;;24.35;3.63;;;;;;;-143.29;100.00;62188.47;4921942;29;20027;-95
2024/02/14 01:10:59;;;;;;;26.40;3.30;;;;;;;-143.29;100.00;62188.47;4934695;29;20028;-96
2024/02/14 01:13:25;;;;;;;20.83;3.17;;;;;;;-143.29;100.00;62188.47;4938371;29;20039;-96
2024/02/14 01:15:52;;;;;;;25.35;3.72;;;;;;;-143.29;100.00;62188.47;4940497;29;20026;-95
2024/02/14 01:18:18;;;;;;;13.73;2.83;;;;;;;-143.29;100.00;62188.47;4939825;29;20103;-96
2024/02/14 01:20:45;;;;;;;24.02;3.58;;;;;;;-143.29;100.00;62188.47;4938608;29;20277;-95
2024/02/14 01:23:10;;;;;;;33.42;3.83;;;;;;;-143.29;100.00;62188.47;4938388;29;20071;-95
2024/02/14 01:25:38;;;;;;;14.05;3.08;;;;;;;-143.29;100.00;62188.47;4937524;29;20546;-96
2024/02/14 01:28:07;;;;;;;31.88;3.42;;;;;;;-143.29;100.00;62188.47;4922307;29;20028;-96
2024/02/14 01:30:33;;;;;;;17.10;2.70;;;;;;;-143.29;100.00;62188.47;4938183;29;20047;-95
2024/02/14 01:33:00;;;;;;;20.30;2.75;;;;;;;-143.29;100.00;62188.47;4938212;29;20096;-95
2024/02/14 01:35:30;;;;;;;19.20;2.83;;;;;;;-143.29;100.00;62188.47;4938726;29;20024;-96
2024/02/14 01:37:57;;;;;;;19.00;2.45;;;;;;;-143.29;100.00;62188.47;4938064;29;20024;-96
2024/02/14 01:40:23;;;;;;;13.38;2.03;;;;;;;-143.29;100.00;62188.47;4938262;29;20032;-95
2024/02/14 01:42:52;;;;;;;15.40;2.67;;;;;;;-143.29;100.00;62188.47;4937864;29;20040;-95
2024/02/14 01:45:18;;;;;;;9.77;1.80;;;;;;;-143.29;100.00;62188.47;4938455;29;20024;-96
2024/02/14 01:47:45;;;;;;;13.77;2.50;;;;;;;-143.29;100.00;62188.47;4937747;29;20076;-95
2024/02/14 01:50:13;;;;;;;14.88;2.35;;;;;;;-143.29;100.00;62188.47;4937981;29;20032;-96
2024/02/14 01:52:40;;;;;;;19.38;2.78;;;;;;;-143.29;100.00;62188.47;4937895;29;20032;-96
2024/02/14 01:55:07;;;;;;;19.55;2.28;;;;;;;-143.29;100.00;62188.47;4937905;29;20032;-96
2024/02/14 01:57:34;;;;;;;16.63;2.20;;;;;;;-143.29;100.00;62188.47;4937807;29;20032;-96
2024/02/14 02:00:08;;;;;;;13.18;1.92;;;;;;;-143.29;100.00;62188.47;4938385;29;20028;-95
2024/02/14 02:02:37;;;;;;;12.65;1.98;;;;;;;-143.29;100.00;62188.47;4937922;29;20040;-96
2024/02/14 02:05:04;;;;;;;15.05;2.45;;;;;;;-143.29;100.00;62188.47;4938202;29;20021;-96
2024/02/14 02:07:32;;;;;;;16.02;1.33;;;;;;;-143.29;100.00;62188.47;4938246;29;20020;-96
2024/02/14 02:10:35;;;;;;;15.88;2.13;;;;;;;-143.29;100.00;62188.47;4937409;29;20491;-96
2024/02/14 02:13:11;;;;;;;10.13;1.48;;;;;;;-143.29;100.00;62188.47;4935354;29;20044;-96
2024/02/14 03:05:17;;;;;;;7.57;1.77;;;;;;;-143.29;100.00;62188.47;5758577;23;20532;-95
2024/02/14 03:07:48;;;;;;;8.88;1.15;;;;;;;-143.29;100.00;62188.47;4921901;29;20042;-96
2024/02/14 03:10:14;;;;;;;7.43;1.20;;;;;;;-143.29;100.00;62188.47;4937901;29;20020;-96
2024/02/14 03:12:40;;;;;;;9.32;1.33;;;;;;;-143.29;100.00;62188.47;4939248;29;20083;-95
2024/02/14 03:15:06;;;;;;;13.20;2.13;;;;;;;-143.29;100.00;62188.47;4937952;29;20015;-96
2024/02/14 03:17:32;;;;;;;7.85;1.48;;;;;;;-143.29;100.00;62188.47;4937732;29;20032;-96
2024/02/14 03:35:30;;;;;;;10.18;1.33;;;;;;;-143.29;100.00;62188.47;5767197;23;20047;-96
2024/02/14 03:37:56;;;;;;;12.38;2.33;;;;;;;-143.29;100.00;62188.47;4937807;29;20046;-95
2024/02/14 03:40:22;;;;;;;11.43;1.38;;;;;;;-143.29;100.00;62188.47;4938092;29;20020;-96
2024/02/14 03:42:48;;;;;;;12.93;2.20;;;;;;;-143.29;100.00;62188.47;4937951;29;20039;-95
2024/02/14 03:45:14;;;;;;;9.10;2.13;;;;;;;-143.29;100.00;62188.47;4936971;29;20031;-96
2024/02/14 03:47:41;;;;;;;13.60;2.25;;;;;;;-143.29;100.00;62188.47;4936405;29;20024;-95
2024/02/14 03:50:08;;;;;;;20.23;3.47;;;;;;;-143.29;100.00;62188.47;4936903;29;20016;-96
2024/02/14 03:52:33;;;;;;;17.67;2.45;;;;;;;-143.29;100.00;62188.47;4938146;29;20055;-96
2024/02/14 03:55:03;;;;;;;15.23;1.52;;;;;;;-143.29;100.00;62188.47;4937640;29;20028;-96
2024/02/14 03:57:28;;;;;;;13.52;2.13;;;;;;;-143.29;100.00;62188.47;4936329;29;20035;-96
2024/02/14 03:59:55;;;;;;;15.68;2.13;;;;;;;-143.29;100.00;62188.47;4937181;29;20049;-96
2024/02/14 04:02:23;;;;;;;14.23;1.85;;;;;;;-143.29;100.00;62188.47;4935898;29;20032;-95
2024/02/14 04:04:49;;;;;;;14.40;2.20;;;;;;;-143.29;100.00;62188.47;4935661;29;20021;-96
2024/02/14 04:07:15;;;;;;;21.98;3.08;;;;;;;-143.29;100.00;62188.47;4935447;29;20024;-96
2024/02/14 04:09:40;;;;;;;14.32;1.85;;;;;;;-143.29;100.00;62188.47;4935139;29;20072;-96
2024/02/14 04:12:07;;;;;;;14.13;1.88;;;;;;;-143.29;100.00;62188.47;4935045;29;20024;-95
2024/02/14 04:14:32;;;;;;;14.77;2.38;;;;;;;-143.29;100.00;62188.47;4934201;29;20091;-96
2024/02/14 04:16:58;;;;;;;21.88;3.67;;;;;;;-143.29;100.00;62188.47;4936213;29;20032;-96
2024/02/14 04:19:23;;;;;;;15.45;2.58;;;;;;;-143.29;100.00;62188.47;4935431;29;20036;-95
2024/02/14 04:21:50;;;;;;;17.90;2.08;;;;;;;-143.29;100.00;62188.47;4935261;29;20482;-96
2024/02/14 04:24:15;;;;;;;21.45;2.88;;;;;;;-143.29;100.00;62188.47;4936051;29;20028;-96
2024/02/14 04:26:41;;;;;;;18.38;3.22;;;;;;;-143.29;100.00;62188.47;4935190;29;20069;-96
2024/02/14 04:29:08;;;;;;;14.48;2.75;;;;;;;-143.29;100.00;62188.47;4934645;29;20036;-96
2024/02/14 04:31:34;;;;;;;24.65;2.90;;;;;;;-143.29;100.00;62188.47;4930225;29;20115;-96
2024/02/14 04:34:00;;;;;;;20.48;3.60;;;;;;;-143.29;100.00;62188.47;4933531;29;20103;-96
2024/02/14 04:36:26;;;;;;;19.52;3.50;;;;;;;-143.29;100.00;62188.47;4939180;29;20068;-95
2024/02/14 04:38:52;;;;;;;20.50;3.25;;;;;;;-143.29;100.00;62188.47;4939129;29;20036;-96
2024/02/14 04:41:18;;;;;;;10.98;2.15;;;;;;;-143.29;100.00;62188.47;4940968;29;20084;-96
2024/02/14 04:43:43;;;;;;;17.08;3.10;;;;;;;-143.29;100.00;62188.47;4936921;29;20115;-96
2024/02/14 04:46:09;;;;;;;14.95;2.80;;;;;;;-143.29;100.00;62188.47;4938885;29;20087;-95
2024/02/14 04:48:36;;;;;;;28.88;4.07;;;;;;;-143.29;100.00;62188.47;4939817;29;20028;-96
2024/02/14 04:51:02;;;;;;;17.65;2.78;;;;;;;-143.29;100.00;62188.47;4938722;29;20080;-96
2024/02/14 04:53:28;;;;;;;16.13;2.50;;;;;;;-143.29;100.00;62188.47;4938420;29;20028;-96
2024/02/14 04:55:54;;;;;;;20.27;2.90;;;;;;;-143.29;100.00;62188.47;4938847;29;20080;-96
2024/02/14 04:58:20;;;;;;;17.35;2.53;;;;;;;-143.29;100.00;62188.47;4938965;29;20047;-96
2024/02/14 05:00:46;;;;;;;16.33;2.58;;;;;;;-143.29;100.00;62188.47;4938040;29;20087;-96
2024/02/14 05:03:12;;;;;;;16.80;3.25;;;;;;;-143.29;100.00;62188.47;4938218;29;20015;-96
2024/02/14 05:05:38;;;;;;;11.98;2.05;;;;;;;-143.29;100.00;62188.47;4937788;29;20020;-96
2024/02/14 05:08:05;;;;;;;21.83;2.92;;;;;;;-143.29;100.00;62188.47;4936785;29;20100;-95
2024/02/14 05:10:32;;;;;;;5.63;1.35;;;;;;;-143.29;100.00;62188.47;4921152;29;20034;-96
2024/02/14 05:12:58;;;;;;;9.93;1.85;;;;;;;-143.29;100.00;62188.47;4936370;29;20071;-96
2024/02/14 05:15:24;;;;;;;10.50;1.83;;;;;;;-143.29;100.00;62188.47;4936907;29;20088;-95
2024/02/14 05:17:52;;;;;;;12.55;2.10;;;;;;;-143.29;100.00;62188.47;4937871;29;20020;-96
2024/02/14 05:20:18;;;;;;;13.75;2.85;;;;;;;-143.29;100.00;62188.47;4936820;29;20036;-96
2024/02/14 05:22:44;;;;;;;10.38;1.85;;;;;;;-143.29;100.00;62188.47;4936713;29;20055;-96
2024/02/14 05:25:10;;;;;;;12.23;1.65;;;;;;;-143.29;100.00;62188.47;4937299;29;20055;-96
2024/02/14 05:27:39;;;;;;;15.88;1.98;;;;;;;-143.29;100.00;62188.47;4934045;29;20028;-96
2024/02/14 05:30:05;;;;;;;10.60;1.90;;;;;;;-143.29;100.00;62188.47;4931480;29;20064;-96
2024/02/14 05:32:31;;;;;;;9.95;1.42;;;;;;;-143.29;100.00;62188.47;4928798;29;20032;-96
2024/02/14 05:34:58;;;;;;;12.07;1.45;;;;;;;-143.29;100.00;62188.47;4928862;29;20028;-95
2024/02/14 05:37:23;;;;;;;6.45;1.38;;;;;;;-143.29;100.00;62188.47;4926492;29;20032;-96
2024/02/14 05:39:49;;;;;;;10.90;1.55;;;;;;;-143.29;100.00;62188.47;4927440;29;20534;-95
2024/02/14 05:42:16;;;;;;;5.60;1.15;;;;;;;-143.29;100.00;62188.47;4927509;29;20021;-95
2024/02/14 05:44:43;;;;;;;6.40;1.23;;;;;;;-143.29;100.00;62188.47;4927636;29;20052;-96
2024/02/14 05:47:09;;;;;;;9.85;1.50;;;;;;;-143.29;100.00;62188.47;4927767;29;20419;-96
2024/02/14 05:49:34;;;;;;;6.07;1.08;;;;;;;-143.29;100.00;62188.47;4927194;29;20095;-95
2024/02/14 05:52:00;;;;;;;7.07;1.10;;;;;;;-143.29;100.00;62188.47;4927966;29;20032;-96
2024/02/14 05:54:26;;;;;;;9.70;1.35;;;;;;;-143.29;100.00;62188.47;4927990;29;20065;-96
2024/02/14 05:56:52;;;;;;;12.45;3.70;;;;;;;-143.29;100.00;62188.47;4929115;29;20024;-95
2024/02/14 05:59:17;;;;;;;5.15;1.17;;;;;;;-143.29;100.00;62188.47;4928977;29;20035;-96
2024/02/14 06:01:43;;;;;;;6.68;1.92;;;;;;;-143.29;100.00;62188.47;4929088;29;20127;-95
2024/02/14 06:04:09;;;;;;;5.82;1.40;;;;;;;-143.29;100.00;62188.47;4931407;29;20043;-96
2024/02/14 06:06:35;;;;;;;3.00;1.77;;;;;;;-143.29;100.00;62188.47;4931273;29;20479;-96
2024/02/14 06:09:00;;;;;;;5.55;0.80;;;;;;;-143.29;100.00;62188.47;4932101;29;20075;-96
2024/02/14 06:11:26;;;;;;;4.38;0.90;;;;;;;-143.29;100.00;62188.47;4932769;29;20035;-96
2024/02/14 06:13:52;;;;;;;4.95;1.17;;;;;;;-143.29;100.00;62188.47;4933905;29;20035;-96
2024/02/14 06:16:18;;;;;;;8.15;1.55;;;;;;;-143.29;100.00;62188.47;4933135;29;20039;-96
2024/02/14 06:18:43;;;;;;;2.50;1.20;;;;;;;-143.29;100.00;62188.47;4916707;29;20040;-96
2024/02/14 06:21:09;;;;;;;9.70;1.13;;;;;;;-143.29;100.00;62188.47;4932092;29;20071;-96
2024/02/14 06:23:36;;;;;;;2.22;1.20;;;;;;;-143.29;100.00;62188.47;4933445;29;20035;-96
2024/02/14 06:26:04;;;;;;;6.40;2.20;;;;;;;-143.29;100.00;62188.47;4932296;29;20136;-95
2024/02/14 06:28:29;;;;;;;9.05;2.20;;;;;;;-143.29;100.00;62188.47;4933480;29;20028;-96
2024/02/14 06:30:55;;;;;;;4.50;1.05;;;;;;;-143.29;100.00;62188.47;4934094;29;20055;-96
2024/02/14 06:33:21;;;;;;;3.80;1.20;;;;;;;-143.29;100.00;62188.47;4933381;29;20063;-96
2024/02/14 06:35:46;;;;;;;4.63;1.30;;;;;;;-143.29;100.00;62188.47;4933984;29;20036;-96
2024/02/14 06:38:13;;;;;;;6.28;1.55;;;;;;;-143.29;100.00;62188.47;4934161;29;20032;-96
2024/02/14 06:40:40;;;;;;;7.18;1.23;;;;;;;-143.29;100.00;62188.47;4934767;29;20028;-96
2024/02/14 06:43:06;;;;;;;7.07;1.48;;;;;;;-143.29;100.00;62188.47;4934509;29;20020;-96
2024/02/14 06:45:32;;;;;;;8.82;1.65;;;;;;;-143.29;100.00;62188.47;4934053;29;20039;-96
2024/02/14 06:47:59;;;;;;;7.93;1.27;;;;;;;-143.29;100.00;62188.47;4934704;29;20044;-96
2024/02/14 06:50:26;;;;;;;6.53;1.52;;;;;;;-143.29;100.00;62188.47;4934179;29;20048;-96
2024/02/14 06:52:52;;;;;;;5.10;1.15;;;;;;;-143.29;100.00;62188.47;4919460;29;20388;-96
2024/02/14 06:55:17;;;;;;;8.50;1.25;;;;;;;-143.29;100.00;62188.47;4935183;29;20024;-96
2024/02/14 06:57:44;;;;;;;4.13;1.00;;;;;;;-143.29;100.00;62188.47;4934322;29;20119;-96
2024/02/14 07:00:11;;;;;;;5.43;0.90;;;;;;;-143.29;100.00;62188.47;4936067;29;20048;-96
2024/02/14 07:02:37;;;;;;;6.00;0.77;;;;;;;-143.29;100.00;62188.47;4935399;29;20048;-96
2024/02/14 07:05:03;;;;;;;5.93;1.58;;;;;;;-143.29;100.00;62188.47;4933599;29;20047;-96
2024/02/14 07:07:29;;;;;;;11.18;1.40;;;;;;;-143.29;100.00;62188.47;4934288;29;20035;-95
2024/02/14 07:09:56;;;;;;;7.13;1.13;;;;;;;-143.29;100.00;62188.47;4935554;29;20024;-96
2024/02/14 07:12:22;;;;;;;4.80;1.27;;;;;;;-143.29;100.00;62188.47;4935186;29;20020;-96
2024/02/14 07:14:49;;;;;;;8.25;1.52;;;;;;;-143.29;100.00;62188.47;4935675;29;20032;-96
2024/02/14 07:17:15;;;;;;;5.97;0.88;;;;;;;-143.29;100.00;62188.47;4934859;29;20091;-95
2024/02/14 07:19:47;;;;;;;5.20;1.00;;;;;;;-143.29;100.00;62188.47;4936150;29;20036;-96
2024/02/14 07:22:15;;;;;;;5.93;1.00;;;;;;;-143.29;100.00;62188.47;4920360;29;20067;-95
2024/02/14 07:24:46;;;;;;;7.55;1.42;;;;;;;-143.29;100.00;62188.47;4935464;29;20031;-96
2024/02/14 07:27:13;;;;;;;6.72;1.30;;;;;;;-143.29;100.00;62188.47;4935596;29;20032;-96
2024/02/14 07:29:38;;;;;;;9.18;1.00;;;;;;;-143.29;100.00;62188.47;4935391;29;20091;-96
2024/02/14 07:32:06;;;;;;;9.82;1.27;;;;;;;-143.29;100.00;62188.47;4933510;29;20032;-96
2024/02/14 07:34:31;;;;;;;12.85;1.15;;;;;;;-143.29;100.00;62188.47;4928675;29;20032;-96
2024/02/14 07:36:57;;;;;;;8.73;1.50;;;;;;;-143.29;100.00;62188.47;4917239;29;20107;-96
2024/02/14 07:39:22;;;;;;;5.78;0.98;;;;;;;-143.29;100.00;62188.47;4917604;29;20064;-96
2024/02/14 07:41:47;;;;;;;6.22;1.75;;;;;;;-143.29;100.00;62188.47;4917996;29;20032;-96
2024/02/14 07:44:13;;;;;;;11.02;1.25;;;;;;;-143.29;100.00;62188.47;4917586;29;20036;-96
2024/02/14 07:46:38;;;;;;;6.20;1.08;;;;;;;-143.29;100.00;62188.47;4917372;29;20032;-95
2024/02/14 07:49:04;;;;;;;3.53;0.80;;;;;;;-143.29;100.00;62188.47;4917456;29;20024;-96
2024/02/14 07:51:36;;;;;;;3.55;0.80;;;;;;;-143.29;100.00;62188.47;4918393;29;20040;-96
2024/02/14 07:54:04;;;;;;;5.07;0.70;;;;;;;-143.29;100.00;62188.47;4918317;29;20124;-95
2024/02/14 07:56:29;;;;;;;6.57;0.80;;;;;;;-143.29;100.00;62188.47;4918050;29;20024;-95
2024/02/14 07:58:55;;;;;;;4.30;0.50;;;;;;;-143.29;100.00;62188.47;4918432;29;20068;-95
2024/02/14 08:01:20;;;;;;;2.95;0.63;;;;;;;-143.29;100.00;62188.47;4919395;29;20054;-96
2024/02/14 08:03:46;;;;;;;4.22;0.65;;;;;;;-143.29;100.00;62188.47;4919530;29;20036;-95
2024/02/14 08:06:12;;;;;;;2.03;0.30;;;;;;;-143.29;100.00;62188.47;4920597;29;20075;-95
2024/02/14 08:08:37;;;;;;;3.53;0.70;;;;;;;-143.29;100.00;62188.47;4922986;29;20036;-95
2024/02/14 08:11:03;;;;;;;2.22;0.40;;;;;;;-143.29;100.00;62188.47;4924402;29;20028;-96
2024/02/14 08:13:29;;;;;;;1.90;0.98;;;;;;;-143.29;100.00;62188.47;4925635;29;20070;-96
2024/02/14 08:15:54;;;;;;;1.08;0.40;;;;;;;-143.29;100.00;62188.47;4925209;29;20032;-96
2024/02/14 08:18:20;;;;;;;3.65;0.57;;;;;;;-143.29;100.00;62188.47;4923599;29;20478;-96
2024/02/14 08:20:45;;;;;;;1.02;0.60;;;;;;;-143.29;100.00;62188.47;4924229;29;20475;-95
2024/02/14 08:23:11;;;;;;;1.33;0.55;;;;;;;-143.29;100.00;62188.47;4924065;29;20047;-96
2024/02/14 08:25:36;;;;;;;2.95;0.77;;;;;;;-143.29;100.00;62188.47;4924078;29;20084;-95
2024/02/14 08:28:02;;;;;;;3.05;0.80;;;;;;;-143.29;100.00;62188.47;4924102;29;20031;-96
2024/02/14 08:30:28;;;;;;;3.92;0.75;;;;;;;-143.29;100.00;62188.47;4925918;29;20028;-96
2024/02/14 08:32:54;;;;;;;4.28;0.80;;;;;;;-143.29;100.00;62188.47;4927918;29;20060;-96
2024/02/14 08:35:21;;;;;;;3.45;1.65;;;;;;;-143.29;100.00;62188.47;4928229;29;20028;-96
2024/02/14 08:37:47;;;;;;;5.50;1.27;;;;;;;-143.29;100.00;62188.47;4927461;29;20466;-96
2024/02/14 08:40:12;;;;;;;2.40;0.98;;;;;;;-143.29;100.00;62188.47;4923323;29;20028;-95
2024/02/14 08:42:38;;;;;;;3.50;0.90;;;;;;;-143.29;100.00;62188.47;4922423;29;20036;-96
2024/02/14 08:45:04;;;;;;;6.45;1.02;;;;;;;-143.29;100.00;62188.47;4923803;29;20083;-95
2024/02/14 08:47:30;;;;;;;2.90;0.90;;;;;;;-143.29;100.00;62188.47;4923315;29;20024;-95
2024/02/14 08:49:55;;;;;;;3.80;0.90;;;;;;;-143.29;100.00;62188.47;4924593;29;20385;-96
2024/02/14 08:52:21;;;;;;;2.30;0.90;;;;;;;-143.29;100.00;62188.47;4926855;29;20047;-95
2024/02/14 08:54:47;;;;;;;4.65;1.13;;;;;;;-143.29;100.00;62188.47;4924918;29;20028;-95
2024/02/14 08:57:13;;;;;;;5.40;1.30;;;;;;;-143.29;100.00;62188.47;4924106;29;20035;-95
2024/02/14 08:59:38;;;;;;;2.95;0.70;;;;;;;-143.29;100.00;62188.47;4924943;29;20039;-95
2024/02/14 09:02:04;;;;;;;4.05;0.60;;;;;;;-143.29;100.00;62188.47;4926800;29;20028;-96
2024/02/14 09:04:31;;;;;;;2.25;0.75;;;;;;;-143.29;100.00;62188.47;4927394;29;20131;-96
2024/02/14 09:06:56;;;;;;;3.00;0.90;;;;;;;-143.29;100.00;62188.47;4927291;29;20032;-95
2024/02/14 09:09:23;;;;;;;3.42;1.05;;;;;;;-143.29;100.00;62188.47;4928098;29;20028;-96
2024/02/14 09:11:48;;;;;;;1.75;0.50;;;;;;;-143.29;100.00;62188.47;4928181;29;20110;-96
2024/02/14 09:14:14;;;;;;;0.73;0.47;;;;;;;-143.29;100.00;62188.47;4931191;29;20044;-96
2024/02/14 09:16:40;;;;;;;1.40;0.50;;;;;;;-143.29;100.00;62188.47;4929384;29;20076;-96
2024/02/14 09:21:41;;;;;;;2.70;0.50;;;;;;;-143.29;100.00;62188.47;5660607;23;20055;-96
2024/02/14 09:24:06;;;;;;;1.55;0.50;;;;;;;-143.29;100.00;62188.47;4934279;29;20035;-96
2024/02/14 09:26:32;;;;;;;3.38;0.88;;;;;;;-143.29;100.00;62188.47;4933984;29;20036;-96
2024/02/14 09:28:59;;;;;;;1.88;0.55;;;;;;;-143.29;100.00;62188.47;5157304;23;20096;-96
2024/02/14 09:31:24;;;;;;;3.95;0.80;;;;;;;-143.29;100.00;62188.47;4942394;29;20012;-96
2024/02/14 09:33:50;;;;;;;2.88;0.35;;;;;;;-143.29;100.00;62188.47;4942353;29;20036;-96
2024/02/14 09:36:16;;;;;;;3.35;0.50;;;;;;;-143.29;100.00;62188.47;4942522;29;20039;-96
2024/02/14 09:38:42;;;;;;;2.45;0.43;;;;;;;-143.29;100.00;62188.47;4942777;29;20040;-96
2024/02/14 09:41:29;;;;;;;3.30;0.65;;;;;;;-143.29;100.00;62188.47;4942741;29;20036;-96
2024/02/14 09:43:56;;;;;;;4.47;0.50;;;;;;;-143.29;100.00;62188.47;4942950;29;20031;-96
2024/02/14 09:46:27;;;;;;;3.35;0.43;;;;;;;-143.29;100.00;62188.47;4943337;29;20035;-96
2024/02/14 09:48:53;;;;;;;3.87;0.70;;;;;;;-143.29;100.00;62188.47;4943194;29;20008;-96
2024/02/14 09:59:06;;;;;;;2.83;0.40;;;;;;;-143.29;100.00;62188.47;5033973;23;20091;-96
2024/02/14 10:01:31;;;;;;;3.92;0.45;;;;;;;-143.29;100.00;62188.47;4938910;29;20024;-96
2024/02/14 10:03:57;;;;;;;4.35;0.60;;;;;;;-143.29;100.00;62188.47;4938644;29;20125;-96
2024/02/14 10:06:25;;;;;;;9.55;0.70;;;;;;;-143.29;100.00;62188.47;4939247;29;20058;-96
2024/02/14 10:08:51;;;;;;;3.40;0.57;;;;;;;-143.29;100.00;62188.47;4939143;29;20035;-96
2024/02/14 10:11:23;;;;;;;3.38;0.70;;;;;;;-143.29;100.00;62188.47;4938892;29;20020;-96
2024/02/14 10:13:51;;;;;;;3.65;0.57;;;;;;;-143.29;100.00;62188.47;4938933;29;20024;-96
2024/02/14 10:16:18;;;;;;;6.60;0.68;;;;;;;-143.29;100.00;62188.47;4939025;29;20024;-96
2024/02/14 10:18:45;;;;;;;3.10;0.52;;;;;;;-143.29;100.00;62188.47;4939609;29;20024;-96
2024/02/14 10:21:16;;;;;;;3.33;0.43;;;;;;;-143.29;100.00;62188.47;4939301;29;20012;-96
2024/02/14 10:23:43;;;;;;;4.28;0.73;;;;;;;-143.29;100.00;62188.47;4938154;29;20035;-96
2024/02/14 10:26:09;;;;;;;2.03;0.47;;;;;;;-143.29;100.00;62188.47;4939066;29;20035;-96
2024/02/14 10:28:40;;;;;;;5.70;0.80;;;;;;;-143.29;100.00;62188.47;4938160;29;20032;-95
2024/02/14 10:31:10;;;;;;;;;;;;;;;-143.29;100.00;62188.47;4938362;29;20005;-96
2024/02/14 10:33:41;;;;;;;3.00;0.70;;;;;;;-143.29;100.00;62188.47;4939173;29;19895;-96
2024/02/14 10:36:08;;;;;;;4.72;1.50;;;;;;;-143.29;100.00;62188.47;4938391;29;20012;-96
2024/02/14 10:38:39;;;;;;;5.70;0.93;;;;;;;-143.29;100.00;62188.47;4937741;29;20040;-96
2024/02/14 10:41:07;;;;;;;3.42;0.82;;;;;;;-143.29;100.00;62188.47;4936381;29;20052;-95
2024/02/14 10:43:34;;;;;;;5.72;0.85;;;;;;;-143.29;100.00;62188.47;4922480;29;20040;-96
2024/02/14 10:46:11;;;;;;;6.80;1.85;;;;;;;-143.29;100.00;62188.47;4938958;29;20055;-96
2024/02/14 10:48:44;;;;;;;6.07;1.05;;;;;;;-143.29;100.00;62188.47;4939211;29;20028;-95
2024/02/14 10:51:19;;;;;;;3.35;0.60;;;;;;;-143.29;100.00;62188.47;4939243;29;20027;-96
2024/02/14 10:53:55;;;;;;;4.47;0.90;;;;;;;-143.29;100.00;62188.47;4939776;29;20059;-96
2024/02/14 10:56:34;;;;;;;6.22;1.25;;;;;;;-143.29;100.00;62188.47;4940486;29;20040;-96
2024/02/14 10:59:15;;;;;;;5.35;1.05;;;;;;;-143.29;100.00;62188.47;4941550;29;20088;-96
2024/02/14 11:01:43;;;;;;;7.20;0.85;;;;;;;-143.29;100.00;62188.47;4939061;29;20024;-96
2024/02/14 11:04:22;;;;;;;2.85;0.32;;;;;;;-143.29;100.00;62188.47;4940092;29;20103;-96
2024/02/14 11:06:54;;;;;;;6.03;1.45;;;;;;;-143.29;100.00;62188.47;4939557;29;20044;-96
2024/02/14 11:09:39;;;;;;;2.43;0.50;;;;;;;-143.29;100.00;62188.47;4923635;29;20040;-96
2024/02/14 11:12:11;;;;;;;4.60;1.10;;;;;;;-143.29;100.00;62188.47;4954808;29;20048;-96
2024/02/14 11:14:43;;;;;;;2.85;0.68;;;;;;;-143.29;100.00;62188.47;4939144;29;20103;-96
2024/02/14 11:17:11;;;;;;;3.45;0.60;;;;;;;-143.29;100.00;62188.47;4939288;29;20091;-95
2024/02/14 11:19:47;;;;;;;6.38;0.90;;;;;;;-143.29;100.00;62188.47;4939271;29;20024;-95
2024/02/14 11:22:19;;;;;;;6.15;0.80;;;;;;;-143.29;100.00;62188.47;4939220;29;20032;-95
2024/02/14 11:24:51;;;;;;;2.13;0.50;;;;;;;-143.29;100.00;62188.47;4939423;29;20036;-96
2024/02/14 11:27:22;;;;;;;5.72;0.90;;;;;;;-143.29;100.00;62188.47;4923378;29;20016;-96
2024/02/14 11:29:54;;;;;;;6.75;0.90;;;;;;;-143.29;100.00;62188.47;4938884;29;20072;-96
2024/02/14 11:32:30;;;;;;;5.05;0.85;;;;;;;-143.29;100.00;62188.47;4939342;29;20065;-96
2024/02/14 11:34:58;;;;;;;5.30;0.98;;;;;;;-143.29;100.00;62188.47;4937843;29;20021;-96
2024/02/14 11:37:34;;;;;;;6.97;0.82;;;;;;;-143.29;100.00;62188.47;4939081;29;20027;-96
2024/02/14 11:40:02;;;;;;;6.20;1.02;;;;;;;-143.29;100.00;62188.47;4937664;29;20111;-96
2024/02/14 11:42:27;;;;;;;8.27;1.63;;;;;;;-143.29;100.00;62188.47;4937683;29;20032;-96
2024/02/14 11:45:06;;;;;;;6.90;0.80;;;;;;;-143.29;100.00;62188.47;4938177;29;20016;-96
2024/02/14 11:47:34;;;;;;;4.30;1.15;;;;;;;-143.29;100.00;62188.47;4937595;29;20029;-96
2024/02/14 11:50:05;;;;;;;8.52;1.08;;;;;;;-143.29;100.00;62188.47;4937837;29;20048;-96
2024/02/14 11:52:32;;;;;;;6.43;0.80;;;;;;;-143.29;100.00;62188.47;4938567;29;20039;-96
2024/02/14 11:54:59;;;;;;;7.25;0.80;;;;;;;-143.29;100.00;62188.47;4937318;29;20020;-96
2024/02/14 11:57:30;;;;;;;9.00;1.25;;;;;;;-143.29;100.00;62188.47;4937073;29;20080;-96
2024/02/14 11:59:58;;;;;;;3.30;0.80;;;;;;;-143.29;100.00;62188.47;4937500;29;20044;-96
2024/02/14 12:02:28;;;;;;;6.32;1.00;;;;;;;-143.29;100.00;62188.47;4936790;29;20040;-96
2024/02/14 12:04:59;;;;;;;2.47;0.55;;;;;;;-143.29;100.00;62188.47;4937233;29;20055;-96
2024/02/14 12:07:26;;;;;;;3.53;0.80;;;;;;;-143.29;100.00;62188.47;4936483;29;20145;-96
2024/02/14 12:09:55;;;;;;;6.18;0.88;;;;;;;-143.29;100.00;62188.47;4936464;29;20087;-96
2024/02/14 12:12:22;;;;;;;4.88;0.93;;;;;;;-143.29;100.00;62188.47;4935782;29;20044;-96
2024/02/14 12:14:53;;;;;;;9.07;1.75;;;;;;;-143.29;100.00;62188.47;4936174;29;20032;-96
2024/02/14 12:20:23;;;;;;;3.70;0.65;;;;;;;-143.29;100.00;62188.47;5202443;23;20044;-96
2024/02/14 12:22:53;;;;;;;10.57;1.08;;;;;;;-143.29;100.00;62188.47;4922134;29;20036;-96
2024/02/14 12:25:19;;;;;;;3.08;0.90;;;;;;;-143.29;100.00;62188.47;4921695;29;20044;-96
2024/02/14 12:27:50;;;;;;;4.70;0.80;;;;;;;-143.29;100.00;62188.47;4921623;29;20019;-96